sensor_id;sensor_type;location;lat;lon;timestamp;temperature;humidity
44723;DHT22;30451;48.638;10.624;2024-02-15T00:01:05;21.60;53.50
44723;DHT22;30451;48.638;10.624;2024-02-15T00:03:31;21.60;53.40
44723;DHT22;30451;48.638;10.624;2024-02-15T00:06:00;21.60;53.40
44723;DHT22;30451;48.638;10.624;2024-02-15T00:08:26;21.70;53.40
44723;DHT22;30451;48.638;10.624;2024-02-15T00:10:52;21.70;53.30
44723;DHT22;30451;48.638;10.624;2024-02-15T00:13:19;21.70;53.30
44723;DHT22;30451;48.638;10.624;2024-02-15T00:15:44;21.80;53.30
44723;DHT22;30451;48.638;10.624;2024-02-15T00:18:13;21.80;53.20
44723;DHT22;30451;48.638;10.624;2024-02-15T00:20:39;21.80;53.30
44723;DHT22;30451;48.638;10.624;2024-02-15T00:23:05;21.80;53.20
44723;DHT22;30451;48.638;10.624;2024-02-15T00:25:32;21.80;53.40
44723;DHT22;30451;48.638;10.624;2024-02-15T00:27:58;21.80;53.20
44723;DHT22;30451;48.638;10.624;2024-02-15T00:30:26;21.80;53.20
44723;DHT22;30451;48.638;10.624;2024-02-15T00:32:52;21.80;53.50
44723;DHT22;30451;48.638;10.624;2024-02-15T00:35:18;21.80;53.40
44723;DHT22;30451;48.638;10.624;2024-02-15T00:37:44;21.80;53.30
44723;DHT22;30451;48.638;10.624;2024-02-15T00:40:10;21.80;53.20
44723;DHT22;30451;48.638;10.624;2024-02-15T00:42:36;21.80;53.20
44723;DHT22;30451;48.638;10.624;2024-02-15T00:45:03;21.80;53.20
44723;DHT22;30451;48.638;10.624;2024-02-15T00:47:29;21.80;53.10
44723;DHT22;30451;48.638;10.624;2024-02-15T00:49:54;21.80;53.10
44723;DHT22;30451;48.638;10.624;2024-02-15T00:52:20;21.80;53.00
44723;DHT22;30451;48.638;10.624;2024-02-15T00:54:46;21.80;53.00
44723;DHT22;30451;48.638;10.624;2024-02-15T00:57:12;21.80;53.00
44723;DHT22;30451;48.638;10.624;2024-02-15T00:59:37;21.70;52.90
44723;DHT22;30451;48.638;10.624;2024-02-15T01:02:04;21.70;52.90
44723;DHT22;30451;48.638;10.624;2024-02-15T01:04:30;21.70;52.90
44723;DHT22;30451;48.638;10.624;2024-02-15T01:06:56;21.70;52.80
44723;DHT22;30451;48.638;10.624;2024-02-15T01:09:22;21.70;52.90
44723;DHT22;30451;48.638;10.624;2024-02-15T01:11:48;21.70;52.80
44723;DHT22;30451;48.638;10.624;2024-02-15T01:14:14;21.70;52.80
44723;DHT22;30451;48.638;10.624;2024-02-15T01:16:43;21.70;52.80
44723;DHT22;30451;48.638;10.624;2024-02-15T01:19:10;21.70;52.80
44723;DHT22;30451;48.638;10.624;2024-02-15T01:21:35;21.70;52.70
44723;DHT22;30451;48.638;10.624;2024-02-15T01:24:02;21.70;52.80
44723;DHT22;30451;48.638;10.624;2024-02-15T01:26:28;21.70;52.70
44723;DHT22;30451;48.638;10.624;2024-02-15T01:28:55;21.70;52.70
44723;DHT22;30451;48.638;10.624;2024-02-15T01:31:21;21.60;52.70
44723;DHT22;30451;48.638;10.624;2024-02-15T01:33:46;21.70;52.70
44723;DHT22;30451;48.638;10.624;2024-02-15T01:36:16;21.60;52.70
44723;DHT22;30451;48.638;10.624;2024-02-15T01:38:41;21.60;52.60
44723;DHT22;30451;48.638;10.624;2024-02-15T01:41:07;21.60;52.60
44723;DHT22;30451;48.638;10.624;2024-02-15T01:43:34;21.60;52.60
44723;DHT22;30451;48.638;10.624;2024-02-15T01:46:00;21.60;52.60
44723;DHT22;30451;48.638;10.624;2024-02-15T01:48:32;21.60;53.10
44723;DHT22;30451;48.638;10.624;2024-02-15T01:50:58;21.60;52.60
44723;DHT22;30451;48.638;10.624;2024-02-15T01:53:25;21.60;52.60
44723;DHT22;30451;48.638;10.624;2024-02-15T01:55:53;21.60;52.60
44723;DHT22;30451;48.638;10.624;2024-02-15T01:58:19;21.60;52.60
44723;DHT22;30451;48.638;10.624;2024-02-15T02:00:45;21.60;52.60
44723;DHT22;30451;48.638;10.624;2024-02-15T02:03:13;21.60;52.60
44723;DHT22;30451;48.638;10.624;2024-02-15T02:05:41;21.60;52.60
44723;DHT22;30451;48.638;10.624;2024-02-15T02:08:07;21.60;52.60
44723;DHT22;30451;48.638;10.624;2024-02-15T02:10:36;21.60;52.60
44723;DHT22;30451;48.638;10.624;2024-02-15T02:13:02;21.60;52.60
44723;DHT22;30451;48.638;10.624;2024-02-15T02:15:28;21.50;52.50
44723;DHT22;30451;48.638;10.624;2024-02-15T02:17:57;21.50;52.50
44723;DHT22;30451;48.638;10.624;2024-02-15T02:20:25;21.50;52.50
44723;DHT22;30451;48.638;10.624;2024-02-15T02:22:51;21.50;52.50
44723;DHT22;30451;48.638;10.624;2024-02-15T02:25:20;21.50;52.50
44723;DHT22;30451;48.638;10.624;2024-02-15T02:27:47;21.50;52.50
44723;DHT22;30451;48.638;10.624;2024-02-15T02:30:15;21.50;52.50
44723;DHT22;30451;48.638;10.624;2024-02-15T02:32:43;21.50;52.50
44723;DHT22;30451;48.638;10.624;2024-02-15T02:35:08;21.50;53.00
44723;DHT22;30451;48.638;10.624;2024-02-15T02:37:40;21.50;52.50
44723;DHT22;30451;48.638;10.624;2024-02-15T02:40:06;21.50;52.50
44723;DHT22;30451;48.638;10.624;2024-02-15T02:42:45;21.50;52.50
44723;DHT22;30451;48.638;10.624;2024-02-15T02:45:11;21.40;52.50
44723;DHT22;30451;48.638;10.624;2024-02-15T02:47:37;21.40;52.40
44723;DHT22;30451;48.638;10.624;2024-02-15T02:50:02;21.50;52.50
44723;DHT22;30451;48.638;10.624;2024-02-15T02:52:28;21.50;52.50
44723;DHT22;30451;48.638;10.624;2024-02-15T02:54:54;21.40;52.40
44723;DHT22;30451;48.638;10.624;2024-02-15T02:57:20;21.40;52.40
44723;DHT22;30451;48.638;10.624;2024-02-15T02:59:45;21.40;52.40
44723;DHT22;30451;48.638;10.624;2024-02-15T03:02:12;21.40;52.40
44723;DHT22;30451;48.638;10.624;2024-02-15T03:04:38;21.40;52.40
44723;DHT22;30451;48.638;10.624;2024-02-15T03:07:05;21.40;52.70
44723;DHT22;30451;48.638;10.624;2024-02-15T03:09:31;21.40;52.40
44723;DHT22;30451;48.638;10.624;2024-02-15T03:11:56;21.40;52.40
44723;DHT22;30451;48.638;10.624;2024-02-15T03:14:22;21.40;52.40
44723;DHT22;30451;48.638;10.624;2024-02-15T03:16:48;21.40;52.40
44723;DHT22;30451;48.638;10.624;2024-02-15T03:19:13;21.40;52.40
44723;DHT22;30451;48.638;10.624;2024-02-15T03:21:39;21.30;52.40
44723;DHT22;30451;48.638;10.624;2024-02-15T03:24:07;21.40;52.40
44723;DHT22;30451;48.638;10.624;2024-02-15T03:26:33;21.40;52.40
44723;DHT22;30451;48.638;10.624;2024-02-15T03:29:05;21.30;52.40
44723;DHT22;30451;48.638;10.624;2024-02-15T03:31:33;21.30;52.40
44723;DHT22;30451;48.638;10.624;2024-02-15T03:34:01;21.30;52.40
44723;DHT22;30451;48.638;10.624;2024-02-15T03:36:26;21.30;52.40
44723;DHT22;30451;48.638;10.624;2024-02-15T03:38:54;21.30;52.40
44723;DHT22;30451;48.638;10.624;2024-02-15T03:41:20;21.30;52.40
44723;DHT22;30451;48.638;10.624;2024-02-15T03:43:46;21.30;52.30
44723;DHT22;30451;48.638;10.624;2024-02-15T03:46:14;21.30;52.30
44723;DHT22;30451;48.638;10.624;2024-02-15T03:48:43;21.30;52.30
44723;DHT22;30451;48.638;10.624;2024-02-15T03:51:16;21.30;52.30
44723;DHT22;30451;48.638;10.624;2024-02-15T03:53:44;21.30;52.40
44723;DHT22;30451;48.638;10.624;2024-02-15T03:56:09;21.30;52.40
44723;DHT22;30451;48.638;10.624;2024-02-15T03:58:35;21.30;52.40
44723;DHT22;30451;48.638;10.624;2024-02-15T04:01:02;21.30;52.40
44723;DHT22;30451;48.638;10.624;2024-02-15T04:03:30;21.30;52.40
44723;DHT22;30451;48.638;10.624;2024-02-15T04:05:57;21.20;52.30
44723;DHT22;30451;48.638;10.624;2024-02-15T04:08:23;21.20;52.80
44723;DHT22;30451;48.638;10.624;2024-02-15T04:10:49;21.20;52.30
44723;DHT22;30451;48.638;10.624;2024-02-15T04:13:15;21.20;52.30
44723;DHT22;30451;48.638;10.624;2024-02-15T04:15:40;21.20;52.30
44723;DHT22;30451;48.638;10.624;2024-02-15T04:18:07;21.20;52.90
44723;DHT22;30451;48.638;10.624;2024-02-15T04:20:33;21.20;52.30
44723;DHT22;30451;48.638;10.624;2024-02-15T04:22:59;21.20;52.40
44723;DHT22;30451;48.638;10.624;2024-02-15T04:25:25;21.20;52.40
44723;DHT22;30451;48.638;10.624;2024-02-15T04:27:53;21.20;52.40
44723;DHT22;30451;48.638;10.624;2024-02-15T04:30:19;21.20;52.90
44723;DHT22;30451;48.638;10.624;2024-02-15T04:32:45;21.20;52.40
44723;DHT22;30451;48.638;10.624;2024-02-15T04:35:13;21.20;52.40
44723;DHT22;30451;48.638;10.624;2024-02-15T04:37:39;21.20;52.40
44723;DHT22;30451;48.638;10.624;2024-02-15T04:40:06;21.20;52.90
44723;DHT22;30451;48.638;10.624;2024-02-15T04:42:39;21.10;52.40
44723;DHT22;30451;48.638;10.624;2024-02-15T04:45:06;21.20;52.40
44723;DHT22;30451;48.638;10.624;2024-02-15T04:47:36;21.10;52.30
44723;DHT22;30451;48.638;10.624;2024-02-15T04:50:02;21.10;52.30
44723;DHT22;30451;48.638;10.624;2024-02-15T04:52:28;21.10;52.40
44723;DHT22;30451;48.638;10.624;2024-02-15T04:54:53;21.10;52.30
44723;DHT22;30451;48.638;10.624;2024-02-15T04:57:20;21.10;52.40
44723;DHT22;30451;48.638;10.624;2024-02-15T04:59:46;21.10;52.40
44723;DHT22;30451;48.638;10.624;2024-02-15T05:02:14;21.10;52.30
44723;DHT22;30451;48.638;10.624;2024-02-15T05:04:39;21.10;52.40
44723;DHT22;30451;48.638;10.624;2024-02-15T05:07:08;21.10;52.40
44723;DHT22;30451;48.638;10.624;2024-02-15T05:09:34;21.10;52.40
44723;DHT22;30451;48.638;10.624;2024-02-15T05:12:00;21.10;52.30
44723;DHT22;30451;48.638;10.624;2024-02-15T05:14:31;21.10;52.40
44723;DHT22;30451;48.638;10.624;2024-02-15T05:16:56;21.10;52.40
44723;DHT22;30451;48.638;10.624;2024-02-15T05:19:22;21.10;52.40
44723;DHT22;30451;48.638;10.624;2024-02-15T05:21:49;21.10;52.40
44723;DHT22;30451;48.638;10.624;2024-02-15T05:24:15;21.10;52.40
44723;DHT22;30451;48.638;10.624;2024-02-15T05:26:43;21.10;52.40
44723;DHT22;30451;48.638;10.624;2024-02-15T05:29:10;21.10;52.40
44723;DHT22;30451;48.638;10.624;2024-02-15T05:31:36;21.10;52.40
44723;DHT22;30451;48.638;10.624;2024-02-15T05:34:05;21.10;52.40
44723;DHT22;30451;48.638;10.624;2024-02-15T05:36:32;21.10;52.40
44723;DHT22;30451;48.638;10.624;2024-02-15T05:38:59;21.10;52.30
44723;DHT22;30451;48.638;10.624;2024-02-15T05:41:25;21.00;52.30
44723;DHT22;30451;48.638;10.624;2024-02-15T05:43:51;21.00;52.30
44723;DHT22;30451;48.638;10.624;2024-02-15T05:46:19;21.00;52.30
44723;DHT22;30451;48.638;10.624;2024-02-15T05:48:47;21.00;52.30
44723;DHT22;30451;48.638;10.624;2024-02-15T05:51:12;21.00;52.30
44723;DHT22;30451;48.638;10.624;2024-02-15T05:53:38;21.00;52.40
44723;DHT22;30451;48.638;10.624;2024-02-15T05:56:05;21.00;52.40
44723;DHT22;30451;48.638;10.624;2024-02-15T05:58:32;21.00;52.40
44723;DHT22;30451;48.638;10.624;2024-02-15T06:00:58;21.00;52.30
44723;DHT22;30451;48.638;10.624;2024-02-15T06:03:30;21.00;52.40
44723;DHT22;30451;48.638;10.624;2024-02-15T06:05:58;21.00;52.40
44723;DHT22;30451;48.638;10.624;2024-02-15T06:08:28;21.00;52.40
44723;DHT22;30451;48.638;10.624;2024-02-15T06:10:57;21.00;52.30
44723;DHT22;30451;48.638;10.624;2024-02-15T06:13:23;21.00;52.30
44723;DHT22;30451;48.638;10.624;2024-02-15T06:15:49;21.00;52.40
44723;DHT22;30451;48.638;10.624;2024-02-15T06:18:28;21.00;52.40
44723;DHT22;30451;48.638;10.624;2024-02-15T06:20:58;21.00;52.30
44723;DHT22;30451;48.638;10.624;2024-02-15T06:23:26;21.00;52.40
44723;DHT22;30451;48.638;10.624;2024-02-15T06:25:54;21.00;52.40
44723;DHT22;30451;48.638;10.624;2024-02-15T06:28:23;21.00;52.40
44723;DHT22;30451;48.638;10.624;2024-02-15T06:31:08;21.00;52.40
44723;DHT22;30451;48.638;10.624;2024-02-15T06:33:53;21.00;52.40
44723;DHT22;30451;48.638;10.624;2024-02-15T06:36:47;21.00;52.40
44723;DHT22;30451;48.638;10.624;2024-02-15T06:39:31;21.00;52.40
44723;DHT22;30451;48.638;10.624;2024-02-15T06:42:15;21.00;52.40
44723;DHT22;30451;48.638;10.624;2024-02-15T06:44:44;20.90;52.40
44723;DHT22;30451;48.638;10.624;2024-02-15T06:47:10;20.90;52.40
44723;DHT22;30451;48.638;10.624;2024-02-15T06:49:37;20.90;52.80
44723;DHT22;30451;48.638;10.624;2024-02-15T06:52:10;20.90;52.40
44723;DHT22;30451;48.638;10.624;2024-02-15T06:54:39;20.90;52.40
44723;DHT22;30451;48.638;10.624;2024-02-15T06:57:05;20.90;52.30
44723;DHT22;30451;48.638;10.624;2024-02-15T06:59:31;20.90;52.30
44723;DHT22;30451;48.638;10.624;2024-02-15T07:02:01;20.90;52.40
44723;DHT22;30451;48.638;10.624;2024-02-15T07:04:27;20.90;52.40
44723;DHT22;30451;48.638;10.624;2024-02-15T07:06:53;20.90;52.40
44723;DHT22;30451;48.638;10.624;2024-02-15T07:09:22;20.90;52.30
44723;DHT22;30451;48.638;10.624;2024-02-15T07:11:52;20.90;52.40
44723;DHT22;30451;48.638;10.624;2024-02-15T07:14:18;20.90;52.40
44723;DHT22;30451;48.638;10.624;2024-02-15T07:16:47;20.90;52.30
44723;DHT22;30451;48.638;10.624;2024-02-15T07:19:13;20.90;52.40
44723;DHT22;30451;48.638;10.624;2024-02-15T07:21:39;20.90;52.40
44723;DHT22;30451;48.638;10.624;2024-02-15T07:24:05;20.90;52.40
44723;DHT22;30451;48.638;10.624;2024-02-15T07:26:31;20.90;52.40
44723;DHT22;30451;48.638;10.624;2024-02-15T07:28:57;20.90;52.40
44723;DHT22;30451;48.638;10.624;2024-02-15T07:31:23;20.90;52.40
44723;DHT22;30451;48.638;10.624;2024-02-15T07:33:52;20.90;52.40
44723;DHT22;30451;48.638;10.624;2024-02-15T07:36:22;20.90;52.40
44723;DHT22;30451;48.638;10.624;2024-02-15T07:38:52;20.90;52.40
44723;DHT22;30451;48.638;10.624;2024-02-15T07:41:26;20.90;52.40
44723;DHT22;30451;48.638;10.624;2024-02-15T07:43:53;20.80;52.40
44723;DHT22;30451;48.638;10.624;2024-02-15T07:46:21;20.90;52.40
44723;DHT22;30451;48.638;10.624;2024-02-15T07:48:47;20.90;52.40
44723;DHT22;30451;48.638;10.624;2024-02-15T07:51:13;20.80;52.40
44723;DHT22;30451;48.638;10.624;2024-02-15T07:53:41;20.90;52.40
44723;DHT22;30451;48.638;10.624;2024-02-15T07:56:09;20.90;52.40
44723;DHT22;30451;48.638;10.624;2024-02-15T07:58:38;20.80;52.30
44723;DHT22;30451;48.638;10.624;2024-02-15T08:01:05;20.90;52.40
44723;DHT22;30451;48.638;10.624;2024-02-15T08:03:31;20.80;52.40
44723;DHT22;30451;48.638;10.624;2024-02-15T08:05:56;20.80;52.40
44723;DHT22;30451;48.638;10.624;2024-02-15T08:08:22;20.80;52.40
44723;DHT22;30451;48.638;10.624;2024-02-15T08:10:47;20.80;52.40
44723;DHT22;30451;48.638;10.624;2024-02-15T08:13:16;20.80;52.40
44723;DHT22;30451;48.638;10.624;2024-02-15T08:15:43;20.80;52.40
44723;DHT22;30451;48.638;10.624;2024-02-15T08:18:10;20.80;52.40
44723;DHT22;30451;48.638;10.624;2024-02-15T08:20:38;20.80;52.40
44723;DHT22;30451;48.638;10.624;2024-02-15T08:23:05;20.80;52.50
44723;DHT22;30451;48.638;10.624;2024-02-15T08:25:31;20.80;52.40
44723;DHT22;30451;48.638;10.624;2024-02-15T08:27:57;20.80;52.40
44723;DHT22;30451;48.638;10.624;2024-02-15T08:30:23;20.80;52.40
44723;DHT22;30451;48.638;10.624;2024-02-15T08:32:48;20.80;52.50
44723;DHT22;30451;48.638;10.624;2024-02-15T08:35:14;20.80;52.50
44723;DHT22;30451;48.638;10.624;2024-02-15T08:37:40;20.80;52.50
44723;DHT22;30451;48.638;10.624;2024-02-15T08:40:10;20.80;52.50
44723;DHT22;30451;48.638;10.624;2024-02-15T08:42:40;20.80;52.50
44723;DHT22;30451;48.638;10.624;2024-02-15T08:45:06;20.80;52.50
44723;DHT22;30451;48.638;10.624;2024-02-15T08:47:39;20.80;52.50
44723;DHT22;30451;48.638;10.624;2024-02-15T08:50:05;20.80;52.50
44723;DHT22;30451;48.638;10.624;2024-02-15T08:52:31;20.80;52.50
44723;DHT22;30451;48.638;10.624;2024-02-15T08:54:57;20.80;52.50
44723;DHT22;30451;48.638;10.624;2024-02-15T08:57:24;20.70;52.50
44723;DHT22;30451;48.638;10.624;2024-02-15T08:59:51;20.80;52.50
44723;DHT22;30451;48.638;10.624;2024-02-15T09:02:17;20.80;52.60
44723;DHT22;30451;48.638;10.624;2024-02-15T09:04:43;20.80;52.60
44723;DHT22;30451;48.638;10.624;2024-02-15T09:07:09;20.80;52.60
44723;DHT22;30451;48.638;10.624;2024-02-15T09:09:35;20.80;53.10
44723;DHT22;30451;48.638;10.624;2024-02-15T09:12:02;20.80;52.60
44723;DHT22;30451;48.638;10.624;2024-02-15T09:14:34;20.70;52.50
44723;DHT22;30451;48.638;10.624;2024-02-15T09:17:02;20.70;52.50
44723;DHT22;30451;48.638;10.624;2024-02-15T09:19:36;20.80;52.60
44723;DHT22;30451;48.638;10.624;2024-02-15T09:22:02;20.70;52.50
44723;DHT22;30451;48.638;10.624;2024-02-15T09:24:32;20.70;52.50
44723;DHT22;30451;48.638;10.624;2024-02-15T09:27:00;20.80;52.60
44723;DHT22;30451;48.638;10.624;2024-02-15T09:29:27;20.70;52.50
44723;DHT22;30451;48.638;10.624;2024-02-15T09:31:55;20.80;52.60
44723;DHT22;30451;48.638;10.624;2024-02-15T09:34:22;20.70;52.50
44723;DHT22;30451;48.638;10.624;2024-02-15T09:36:47;20.80;52.60
44723;DHT22;30451;48.638;10.624;2024-02-15T09:39:13;20.80;52.60
44723;DHT22;30451;48.638;10.624;2024-02-15T09:41:40;20.70;52.50
44723;DHT22;30451;48.638;10.624;2024-02-15T09:44:08;20.70;52.50
44723;DHT22;30451;48.638;10.624;2024-02-15T09:46:42;20.70;52.80
44723;DHT22;30451;48.638;10.624;2024-02-15T09:49:11;20.70;52.50
44723;DHT22;30451;48.638;10.624;2024-02-15T09:51:38;20.70;52.50
44723;DHT22;30451;48.638;10.624;2024-02-15T09:54:05;20.80;52.60
44723;DHT22;30451;48.638;10.624;2024-02-15T09:56:32;20.80;52.50
44723;DHT22;30451;48.638;10.624;2024-02-15T09:58:59;20.80;52.50
44723;DHT22;30451;48.638;10.624;2024-02-15T10:01:27;20.80;52.50
44723;DHT22;30451;48.638;10.624;2024-02-15T10:03:56;20.70;52.40
44723;DHT22;30451;48.638;10.624;2024-02-15T10:06:24;20.80;52.40
44723;DHT22;30451;48.638;10.624;2024-02-15T10:08:50;20.70;52.40
44723;DHT22;30451;48.638;10.624;2024-02-15T10:11:16;20.80;52.40
44723;DHT22;30451;48.638;10.624;2024-02-15T10:13:42;20.80;52.40
44723;DHT22;30451;48.638;10.624;2024-02-15T10:16:19;20.80;52.40
44723;DHT22;30451;48.638;10.624;2024-02-15T10:18:50;20.70;52.30
44723;DHT22;30451;48.638;10.624;2024-02-15T10:21:28;20.70;52.30
44723;DHT22;30451;48.638;10.624;2024-02-15T10:24:28;20.80;52.40
44723;DHT22;30451;48.638;10.624;2024-02-15T10:26:48;20.80;52.40
44723;DHT22;30451;48.638;10.624;2024-02-15T10:29:14;20.80;52.40
44723;DHT22;30451;48.638;10.624;2024-02-15T10:31:56;20.80;52.30
44723;DHT22;30451;48.638;10.624;2024-02-15T10:34:22;20.80;52.30
44723;DHT22;30451;48.638;10.624;2024-02-15T10:36:49;20.70;52.20
44723;DHT22;30451;48.638;10.624;2024-02-15T10:39:20;20.80;52.30
44723;DHT22;30451;48.638;10.624;2024-02-15T10:41:50;20.80;52.30
44723;DHT22;30451;48.638;10.624;2024-02-15T10:44:21;20.70;52.20
44723;DHT22;30451;48.638;10.624;2024-02-15T10:46:49;20.70;52.20
44723;DHT22;30451;48.638;10.624;2024-02-15T10:49:24;20.70;52.10
44723;DHT22;30451;48.638;10.624;2024-02-15T10:52:00;20.70;52.10
44723;DHT22;30451;48.638;10.624;2024-02-15T10:54:49;20.70;52.60
44723;DHT22;30451;48.638;10.624;2024-02-15T10:57:21;20.80;52.10
44723;DHT22;30451;48.638;10.624;2024-02-15T10:59:57;20.70;52.00
44723;DHT22;30451;48.638;10.624;2024-02-15T11:02:33;20.70;52.00
44723;DHT22;30451;48.638;10.624;2024-02-15T11:07:31;20.70;51.90
44723;DHT22;30451;48.638;10.624;2024-02-15T11:09:58;20.70;52.00
44723;DHT22;30451;48.638;10.624;2024-02-15T11:12:24;20.70;51.90
44723;DHT22;30451;48.638;10.624;2024-02-15T11:14:54;20.80;52.00
44723;DHT22;30451;48.638;10.624;2024-02-15T11:23:00;20.80;51.90
44723;DHT22;30451;48.638;10.624;2024-02-15T11:25:38;20.70;51.90
44723;DHT22;30451;48.638;10.624;2024-02-15T11:30:49;20.70;51.90
44723;DHT22;30451;48.638;10.624;2024-02-15T11:36:09;20.80;51.90
44723;DHT22;30451;48.638;10.624;2024-02-15T11:38:36;20.70;51.90
44723;DHT22;30451;48.638;10.624;2024-02-15T11:41:06;20.70;51.90
44723;DHT22;30451;48.638;10.624;2024-02-15T11:46:16;20.70;51.90
44723;DHT22;30451;48.638;10.624;2024-02-15T11:48:48;20.70;51.90
44723;DHT22;30451;48.638;10.624;2024-02-15T11:51:27;20.80;52.00
44723;DHT22;30451;48.638;10.624;2024-02-15T11:54:06;20.70;51.90
44723;DHT22;30451;48.638;10.624;2024-02-15T11:56:53;20.70;51.90
44723;DHT22;30451;48.638;10.624;2024-02-15T11:59:44;20.80;52.00
44723;DHT22;30451;48.638;10.624;2024-02-15T12:02:38;20.80;52.00
44723;DHT22;30451;48.638;10.624;2024-02-15T12:05:22;20.70;51.90
44723;DHT22;30451;48.638;10.624;2024-02-15T12:08:07;20.80;52.00
44723;DHT22;30451;48.638;10.624;2024-02-15T12:11:00;20.80;52.00
44723;DHT22;30451;48.638;10.624;2024-02-15T12:13:50;20.80;52.00
44723;DHT22;30451;48.638;10.624;2024-02-15T12:16:35;20.70;52.00
44723;DHT22;30451;48.638;10.624;2024-02-15T12:19:19;20.80;52.10
44723;DHT22;30451;48.638;10.624;2024-02-15T12:21:47;20.80;52.10
44723;DHT22;30451;48.638;10.624;2024-02-15T12:24:14;20.80;52.60
44723;DHT22;30451;48.638;10.624;2024-02-15T12:26:40;20.80;52.10
44723;DHT22;30451;48.638;10.624;2024-02-15T12:29:07;20.80;52.10
44723;DHT22;30451;48.638;10.624;2024-02-15T12:31:36;20.80;52.10
44723;DHT22;30451;48.638;10.624;2024-02-15T12:34:04;20.80;52.20
44723;DHT22;30451;48.638;10.624;2024-02-15T12:36:34;20.80;52.60
44723;DHT22;30451;48.638;10.624;2024-02-15T12:39:06;20.80;52.10
44723;DHT22;30451;48.638;10.624;2024-02-15T12:41:48;20.80;52.10
44723;DHT22;30451;48.638;10.624;2024-02-15T12:44:18;20.80;52.60
44723;DHT22;30451;48.638;10.624;2024-02-15T12:46:54;20.80;52.10
44723;DHT22;30451;48.638;10.624;2024-02-15T12:51:54;20.80;52.10
44723;DHT22;30451;48.638;10.624;2024-02-15T12:54:39;20.80;52.20
44723;DHT22;30451;48.638;10.624;2024-02-15T12:57:08;20.80;52.10
44723;DHT22;30451;48.638;10.624;2024-02-15T12:59:39;20.80;52.20
44723;DHT22;30451;48.638;10.624;2024-02-15T13:02:04;20.80;52.20
44723;DHT22;30451;48.638;10.624;2024-02-15T13:04:30;20.80;52.20
44723;DHT22;30451;48.638;10.624;2024-02-15T13:06:56;20.80;52.20
44723;DHT22;30451;48.638;10.624;2024-02-15T13:09:21;20.80;52.20
44723;DHT22;30451;48.638;10.624;2024-02-15T13:11:48;20.80;52.20
44723;DHT22;30451;48.638;10.624;2024-02-15T13:14:15;20.80;52.20
44723;DHT22;30451;48.638;10.624;2024-02-15T13:16:41;20.80;52.20
44723;DHT22;30451;48.638;10.624;2024-02-15T13:19:08;20.90;52.20
44723;DHT22;30451;48.638;10.624;2024-02-15T13:21:34;20.90;52.20
44723;DHT22;30451;48.638;10.624;2024-02-15T13:24:00;20.90;52.20
44723;DHT22;30451;48.638;10.624;2024-02-15T13:26:30;20.90;52.20
44723;DHT22;30451;48.638;10.624;2024-02-15T13:28:56;20.90;52.20
44723;DHT22;30451;48.638;10.624;2024-02-15T13:31:21;20.90;52.20
44723;DHT22;30451;48.638;10.624;2024-02-15T13:33:48;20.90;52.20
44723;DHT22;30451;48.638;10.624;2024-02-15T13:36:13;20.90;52.20
44723;DHT22;30451;48.638;10.624;2024-02-15T13:38:41;20.90;52.20
44723;DHT22;30451;48.638;10.624;2024-02-15T13:41:07;20.90;52.20
44723;DHT22;30451;48.638;10.624;2024-02-15T13:43:34;20.90;52.20
44723;DHT22;30451;48.638;10.624;2024-02-15T13:45:59;20.90;52.10
44723;DHT22;30451;48.638;10.624;2024-02-15T13:48:29;20.90;52.10
44723;DHT22;30451;48.638;10.624;2024-02-15T13:50:55;20.90;52.10
44723;DHT22;30451;48.638;10.624;2024-02-15T13:53:21;20.90;52.10
44723;DHT22;30451;48.638;10.624;2024-02-15T13:55:47;20.90;52.60
44723;DHT22;30451;48.638;10.624;2024-02-15T13:58:13;20.90;52.10
44723;DHT22;30451;48.638;10.624;2024-02-15T14:00:40;20.90;52.00
44723;DHT22;30451;48.638;10.624;2024-02-15T14:03:07;20.90;52.00
44723;DHT22;30451;48.638;10.624;2024-02-15T14:05:35;20.90;52.00
44723;DHT22;30451;48.638;10.624;2024-02-15T14:08:03;20.90;52.00
44723;DHT22;30451;48.638;10.624;2024-02-15T14:10:31;20.90;52.00
44723;DHT22;30451;48.638;10.624;2024-02-15T14:12:57;20.90;52.00
44723;DHT22;30451;48.638;10.624;2024-02-15T14:15:27;20.90;52.00
44723;DHT22;30451;48.638;10.624;2024-02-15T14:17:53;20.90;52.00
44723;DHT22;30451;48.638;10.624;2024-02-15T14:20:18;20.90;52.00
44723;DHT22;30451;48.638;10.624;2024-02-15T14:22:47;20.90;52.00
44723;DHT22;30451;48.638;10.624;2024-02-15T14:25:15;20.90;51.90
44723;DHT22;30451;48.638;10.624;2024-02-15T14:27:41;20.90;52.00
44723;DHT22;30451;48.638;10.624;2024-02-15T14:30:08;20.90;51.90
44723;DHT22;30451;48.638;10.624;2024-02-15T14:32:52;20.90;51.90
44723;DHT22;30451;48.638;10.624;2024-02-15T14:35:34;20.90;51.90
44723;DHT22;30451;48.638;10.624;2024-02-15T14:38:05;20.90;51.90
44723;DHT22;30451;48.638;10.624;2024-02-15T14:40:36;20.90;51.90
44723;DHT22;30451;48.638;10.624;2024-02-15T14:43:03;21.00;51.90
44723;DHT22;30451;48.638;10.624;2024-02-15T14:45:35;20.90;51.90
44723;DHT22;30451;48.638;10.624;2024-02-15T14:48:04;20.90;51.90
44723;DHT22;30451;48.638;10.624;2024-02-15T14:50:30;21.00;51.90
44723;DHT22;30451;48.638;10.624;2024-02-15T14:52:55;21.00;51.90
44723;DHT22;30451;48.638;10.624;2024-02-15T14:55:22;21.00;51.90
44723;DHT22;30451;48.638;10.624;2024-02-15T14:57:48;21.00;51.90
44723;DHT22;30451;48.638;10.624;2024-02-15T15:00:14;21.00;51.90
44723;DHT22;30451;48.638;10.624;2024-02-15T15:02:45;21.00;51.80
44723;DHT22;30451;48.638;10.624;2024-02-15T15:05:12;21.00;52.30
44723;DHT22;30451;48.638;10.624;2024-02-15T15:07:57;21.00;51.80
44723;DHT22;30451;48.638;10.624;2024-02-15T15:10:41;21.00;51.80
44723;DHT22;30451;48.638;10.624;2024-02-15T15:13:25;21.00;51.80
44723;DHT22;30451;48.638;10.624;2024-02-15T15:15:51;21.00;51.80
44723;DHT22;30451;48.638;10.624;2024-02-15T15:18:17;21.00;51.80
44723;DHT22;30451;48.638;10.624;2024-02-15T15:20:44;21.00;51.70
44723;DHT22;30451;48.638;10.624;2024-02-15T15:23:09;21.00;51.70
44723;DHT22;30451;48.638;10.624;2024-02-15T15:25:36;21.00;51.70
44723;DHT22;30451;48.638;10.624;2024-02-15T15:28:05;21.00;51.70
44723;DHT22;30451;48.638;10.624;2024-02-15T15:30:30;21.00;51.70
44723;DHT22;30451;48.638;10.624;2024-02-15T15:32:56;21.00;51.70
44723;DHT22;30451;48.638;10.624;2024-02-15T15:35:23;21.00;51.60
44723;DHT22;30451;48.638;10.624;2024-02-15T15:37:49;21.00;51.70
44723;DHT22;30451;48.638;10.624;2024-02-15T15:40:18;21.00;51.70
44723;DHT22;30451;48.638;10.624;2024-02-15T15:42:45;21.00;51.60